createdAt,value
2024-01-22T00:00:15.563Z,-18.36
2024-01-22T00:02:43.315Z,-18.49
2024-01-22T00:05:13.368Z,-18.35
2024-01-22T00:07:40.587Z,-18.39
2024-01-22T00:10:08.303Z,-18.70
2024-01-22T00:12:36.117Z,-18.76
2024-01-22T00:15:03.555Z,-18.72
2024-01-22T00:17:31.890Z,-18.83
2024-01-22T00:19:59.226Z,-18.79
2024-01-22T00:22:26.521Z,-18.87
2024-01-22T00:24:53.678Z,-18.95
2024-01-22T00:27:21.016Z,-19.00
2024-01-22T00:29:48.501Z,-18.91
2024-01-22T00:32:23.603Z,-18.83
2024-01-22T00:34:51.106Z,-18.99
2024-01-22T00:37:18.442Z,-18.86
2024-01-22T00:39:45.628Z,-18.76
2024-01-22T00:42:13.678Z,-18.87
2024-01-22T00:44:42.846Z,-18.80
2024-01-22T00:47:10.145Z,-18.81
2024-01-22T00:49:37.513Z,-18.82
2024-01-22T00:52:05.171Z,-18.98
2024-01-22T00:54:32.611Z,-19.05
2024-01-22T00:57:00.291Z,-19.18
2024-01-22T00:59:27.754Z,-19.21
2024-01-22T01:01:54.988Z,-19.29
2024-01-22T01:04:22.274Z,-19.27
2024-01-22T01:06:49.644Z,-19.33
2024-01-22T01:09:55.130Z,-19.27
2024-01-22T01:12:22.453Z,-19.22
2024-01-22T01:14:49.924Z,-19.14
2024-01-22T01:17:17.179Z,-19.16
2024-01-22T01:19:44.558Z,-19.29
2024-01-22T01:22:11.813Z,-19.22
2024-01-22T01:24:39.681Z,-19.07
2024-01-22T01:27:07.202Z,-18.92
2024-01-22T01:29:34.886Z,-18.86
2024-01-22T01:32:02.259Z,-18.72
2024-01-22T01:34:29.641Z,-18.63
2024-01-22T01:36:56.984Z,-18.58
2024-01-22T01:39:24.239Z,-18.41
2024-01-22T01:41:51.789Z,-18.59
2024-01-22T01:44:18.999Z,-18.67
2024-01-22T01:46:47.033Z,-18.57
2024-01-22T01:49:14.536Z,-18.63
2024-01-22T01:51:41.945Z,-18.33
2024-01-22T01:54:10.747Z,-18.54
2024-01-22T01:56:39.645Z,-18.58
2024-01-22T01:59:07.308Z,-18.55
2024-01-22T02:01:34.752Z,-18.55
2024-01-22T02:04:02.247Z,-18.48
2024-01-22T02:06:29.584Z,-18.42
2024-01-22T02:09:18.524Z,-18.36
2024-01-22T02:11:45.881Z,-18.29
2024-01-22T02:14:13.144Z,-18.21
2024-01-22T02:16:40.579Z,-18.31
2024-01-22T02:19:08.795Z,-18.21
2024-01-22T02:21:36.051Z,-18.14
2024-01-22T02:24:03.518Z,-18.11
2024-01-22T02:26:31.391Z,-18.17
2024-01-22T02:28:59.390Z,-18.08
2024-01-22T02:31:26.636Z,-18.11
2024-01-22T02:33:54.108Z,-18.18
2024-01-22T02:36:21.450Z,-18.16
2024-01-22T02:38:48.843Z,-18.17
2024-01-22T02:41:16.316Z,-18.16
2024-01-22T02:43:44.198Z,-18.26
2024-01-22T02:46:12.168Z,-18.14
2024-01-22T02:48:39.459Z,-18.15
2024-01-22T02:51:10.440Z,-18.19
2024-01-22T02:53:38.435Z,-18.17
2024-01-22T02:56:06.183Z,-18.10
2024-01-22T02:58:33.501Z,-18.26
2024-01-22T03:01:00.798Z,-18.12
2024-01-22T03:03:28.060Z,-18.14
2024-01-22T03:06:27.578Z,-18.08
2024-01-22T03:09:27.652Z,-18.15
2024-01-22T03:11:55.040Z,-18.15
2024-01-22T03:18:15.815Z,-17.77
2024-01-22T03:20:43.209Z,-17.77
2024-01-22T03:23:10.831Z,-17.66
2024-01-22T03:25:38.218Z,-17.61
2024-01-22T03:28:06.368Z,-17.43
2024-01-22T03:30:33.680Z,-17.33
2024-01-22T03:33:00.985Z,-17.19
2024-01-22T03:35:28.267Z,-17.23
2024-01-22T03:37:55.489Z,-17.13
2024-01-22T03:40:25.275Z,-17.21
2024-01-22T03:42:52.476Z,-17.15
2024-01-22T03:45:20.058Z,-17.21
2024-01-22T03:47:48.091Z,-17.14
2024-01-22T03:50:15.627Z,-17.15
2024-01-22T03:52:42.812Z,-17.21
2024-01-22T03:55:11.439Z,-17.09
2024-01-22T03:57:38.687Z,-16.96
2024-01-22T04:00:06.734Z,-16.98
2024-01-22T04:02:35.222Z,-17.15
2024-01-22T04:05:02.962Z,-17.13
2024-01-22T04:07:30.282Z,-17.03
2024-01-22T04:09:57.534Z,-17.11
2024-01-22T04:12:24.850Z,-17.31
2024-01-22T04:14:52.741Z,-17.18
2024-01-22T04:17:20.051Z,-17.05
2024-01-22T04:19:47.331Z,-16.98
2024-01-22T04:22:15.100Z,-16.96
2024-01-22T04:24:42.302Z,-16.88
2024-01-22T04:27:09.614Z,-17.00
2024-01-22T04:29:37.117Z,-16.77
2024-01-22T04:32:04.602Z,-16.86
2024-01-22T04:34:32.048Z,-16.97
2024-01-22T04:36:59.459Z,-16.91
2024-01-22T04:39:27.154Z,-17.07
2024-01-22T04:41:54.838Z,-17.00
2024-01-22T04:44:22.110Z,-16.89
2024-01-22T04:46:49.265Z,-16.76
2024-01-22T04:49:16.730Z,-16.68
2024-01-22T04:51:44.272Z,-16.75
2024-01-22T04:54:14.756Z,-16.86
2024-01-22T04:56:43.235Z,-16.76
2024-01-22T04:59:10.449Z,-16.76
2024-01-22T05:01:38.117Z,-16.56
2024-01-22T05:04:06.061Z,-16.46
2024-01-22T05:06:33.823Z,-16.34
2024-01-22T05:09:01.192Z,-16.24
2024-01-22T05:11:28.650Z,-16.36
2024-01-22T05:13:56.000Z,-16.34
2024-01-22T05:16:23.827Z,-16.32
2024-01-22T05:18:53.128Z,-16.28
2024-01-22T05:21:23.419Z,-16.29
2024-01-22T05:23:50.957Z,-16.38
2024-01-22T05:26:18.299Z,-16.49
2024-01-22T05:28:45.552Z,-16.50
2024-01-22T05:31:13.041Z,-16.30
2024-01-22T05:33:40.459Z,-16.14
2024-01-22T05:36:08.641Z,-16.26
2024-01-22T05:38:35.978Z,-16.16
2024-01-22T05:41:04.164Z,-16.17
2024-01-22T05:43:31.410Z,-16.16
2024-01-22T05:45:58.616Z,-16.24
2024-01-22T05:48:25.984Z,-16.45
2024-01-22T05:50:53.242Z,-16.57
2024-01-22T05:53:20.480Z,-16.80
2024-01-22T05:55:47.731Z,-16.66
2024-01-22T05:58:15.001Z,-16.57
2024-01-22T06:00:42.331Z,-16.30
2024-01-22T06:03:38.700Z,-16.16
2024-01-22T06:06:07.112Z,-16.08
2024-01-22T06:08:34.632Z,-16.07
2024-01-22T06:11:05.858Z,-15.84
2024-01-22T06:13:42.662Z,-15.78
2024-01-22T06:17:19.408Z,-15.51
2024-01-22T06:19:47.591Z,-15.43
2024-01-22T06:22:54.832Z,-15.28
2024-01-22T06:25:22.198Z,-15.07
2024-01-22T06:27:50.787Z,-14.95
2024-01-22T06:30:22.840Z,-15.07
2024-01-22T06:48:09.379Z,-14.79
2024-01-22T06:50:37.175Z,-14.71
2024-01-22T06:53:05.548Z,-14.77
2024-01-22T06:55:33.081Z,-14.88
2024-01-22T06:58:04.359Z,-14.93
2024-01-22T07:00:34.523Z,-14.70
2024-01-22T07:03:01.987Z,-14.60
2024-01-22T07:05:31.114Z,-14.82
2024-01-22T07:08:13.279Z,-14.81
2024-01-22T07:10:42.216Z,-14.98
2024-01-22T07:13:10.520Z,-15.00
2024-01-22T07:15:37.934Z,-14.95
2024-01-22T07:18:05.410Z,-14.84
2024-01-22T07:20:32.892Z,-14.69
2024-01-22T07:23:00.180Z,-14.50
2024-01-22T07:25:27.527Z,-14.24
2024-01-22T07:27:54.657Z,-14.23
2024-01-22T07:30:22.000Z,-14.37
2024-01-22T07:32:49.438Z,-14.50
2024-01-22T07:35:17.125Z,-14.51
2024-01-22T07:37:48.611Z,-14.57
2024-01-22T07:40:16.061Z,-14.49
2024-01-22T07:42:43.763Z,-14.56
2024-01-22T07:45:12.232Z,-14.59
2024-01-22T07:47:44.026Z,-14.61
2024-01-22T07:50:16.201Z,-14.61
2024-01-22T07:52:47.168Z,-14.44
2024-01-22T07:55:19.130Z,-14.39
2024-01-22T07:57:46.695Z,-14.45
2024-01-22T08:00:15.177Z,-14.58
2024-01-22T08:02:42.788Z,-14.36
2024-01-22T08:05:15.012Z,-14.25
2024-01-22T08:07:45.355Z,-14.18
2024-01-22T08:10:14.170Z,-14.30
2024-01-22T08:12:45.192Z,-14.19
2024-01-22T08:15:17.354Z,-14.17
2024-01-22T08:17:48.540Z,-14.06
2024-01-22T08:20:20.724Z,-14.03
2024-01-22T08:22:53.443Z,-13.94
2024-01-22T08:25:29.572Z,-13.83
2024-01-22T08:27:57.645Z,-13.83
2024-01-22T08:30:27.324Z,-13.71
2024-01-22T08:32:55.659Z,-13.63
2024-01-22T08:35:23.739Z,-13.68
2024-01-22T08:37:56.392Z,-13.95
2024-01-22T08:40:24.928Z,-14.07
2024-01-22T08:42:55.089Z,-14.18
2024-01-22T08:45:23.601Z,-14.06
2024-01-22T08:47:51.693Z,-14.12
2024-01-22T08:50:20.559Z,-14.21
2024-01-22T08:52:48.019Z,-14.17
2024-01-22T08:55:20.097Z,-14.31
2024-01-22T08:57:47.687Z,-14.21
2024-01-22T09:00:16.133Z,-14.17
2024-01-22T09:02:44.441Z,-14.15
2024-01-22T09:05:13.584Z,-14.16
2024-01-22T09:07:40.798Z,-14.13
2024-01-22T09:10:08.965Z,-13.91
2024-01-22T09:12:36.495Z,-13.69
2024-01-22T09:15:08.124Z,-14.02
2024-01-22T09:17:35.405Z,-13.97
2024-01-22T09:20:02.637Z,-14.02
2024-01-22T09:22:32.568Z,-13.99
2024-01-22T09:24:59.829Z,-14.28
2024-01-22T09:27:27.004Z,-14.07
2024-01-22T09:29:54.324Z,-13.73
2024-01-22T09:32:21.903Z,-13.63
2024-01-22T09:34:49.342Z,-13.53
2024-01-22T09:37:16.996Z,-13.28
2024-01-22T09:39:45.684Z,-13.21
2024-01-22T09:42:18.638Z,-13.06
2024-01-22T09:44:48.614Z,-13.15
2024-01-22T09:47:16.407Z,-13.08
2024-01-22T09:49:44.295Z,-12.88
2024-01-22T09:52:19.915Z,-12.76
2024-01-22T09:54:47.286Z,-12.49
2024-01-22T09:57:19.368Z,-12.60
2024-01-22T09:59:49.278Z,-12.30
2024-01-22T10:02:17.869Z,-12.12
2024-01-22T10:04:46.052Z,-12.00
2024-01-22T10:07:15.531Z,-11.89
2024-01-22T10:09:46.049Z,-11.98
2024-01-22T10:12:13.454Z,-11.90
2024-01-22T10:14:43.010Z,-11.96
2024-01-22T10:17:21.416Z,-11.58
2024-01-22T10:19:50.680Z,-11.37
2024-01-22T10:22:21.421Z,-11.36
2024-01-22T10:25:04.555Z,-11.40
2024-01-22T10:27:32.369Z,-11.70
2024-01-22T10:30:11.481Z,-11.76
2024-01-22T10:32:39.034Z,-11.75
2024-01-22T10:35:24.006Z,-11.55
2024-01-22T10:38:08.711Z,-11.75
2024-01-22T10:40:36.331Z,-11.63
2024-01-22T10:43:25.854Z,-11.42
2024-01-22T10:45:55.777Z,-11.49
2024-01-22T10:48:38.323Z,-11.41
2024-01-22T10:51:12.545Z,-11.17
2024-01-22T10:53:41.394Z,-11.26
2024-01-22T10:56:27.831Z,-11.32
2024-01-22T10:58:58.476Z,-11.40
2024-01-22T11:01:27.976Z,-11.18
2024-01-22T11:03:59.218Z,-11.09
2024-01-22T11:06:29.622Z,-11.02
2024-01-22T11:08:59.207Z,-11.08
2024-01-22T11:11:30.553Z,-11.14
2024-01-22T11:14:05.866Z,-10.78
2024-01-22T11:16:34.424Z,-10.60
2024-01-22T11:19:09.971Z,-10.39
2024-01-22T11:21:40.300Z,-10.46
2024-01-22T11:24:21.314Z,-10.11
2024-01-22T11:26:53.337Z,-9.96
2024-01-22T11:29:26.507Z,-10.10
2024-01-22T11:31:55.241Z,-10.33
2024-01-22T11:34:48.123Z,-10.40
2024-01-22T11:37:37.747Z,-10.44
2024-01-22T11:40:13.762Z,-10.61
2024-01-22T11:42:41.238Z,-10.68
2024-01-22T11:45:13.357Z,-10.39
2024-01-22T11:47:41.360Z,-10.22
2024-01-22T11:50:10.631Z,-10.37
2024-01-22T11:52:39.759Z,-10.37
2024-01-22T11:55:09.585Z,-10.33
2024-01-22T11:57:40.348Z,-10.37
2024-01-22T12:00:16.305Z,-10.61
2024-01-22T12:02:48.119Z,-10.40
2024-01-22T12:05:21.330Z,-10.66
2024-01-22T12:07:53.878Z,-10.75
2024-01-22T12:10:24.674Z,-10.51
2024-01-22T12:13:10.063Z,-10.48
2024-01-22T12:15:39.940Z,-10.47
2024-01-22T12:18:09.516Z,-10.44
2024-01-22T12:20:38.941Z,-10.39
2024-01-22T12:23:07.122Z,-10.44
2024-01-22T12:32:30.354Z,-10.59
2024-01-22T12:35:04.598Z,-10.48
2024-01-22T12:37:40.669Z,-10.57
2024-01-22T12:40:18.555Z,-10.47
2024-01-22T12:42:58.586Z,-10.57
2024-01-22T12:45:28.195Z,-10.40
2024-01-22T12:48:06.699Z,-10.28
2024-01-22T12:50:37.258Z,-10.15
2024-01-22T12:53:06.640Z,-10.26
2024-01-22T12:55:42.281Z,-10.29
2024-01-22T12:58:13.218Z,-10.31
2024-01-22T13:00:42.237Z,-10.15
2024-01-22T13:03:13.862Z,-10.00
2024-01-22T13:05:42.929Z,-10.20
2024-01-22T13:08:12.923Z,-10.37
2024-01-22T13:10:42.468Z,-10.48
2024-01-22T13:13:13.391Z,-10.18
2024-01-22T13:15:52.783Z,-10.11
2024-01-22T13:18:31.326Z,-10.16
2024-01-22T13:21:02.800Z,-10.13
2024-01-22T13:23:33.978Z,-10.09
2024-01-22T13:26:03.482Z,-9.95
2024-01-22T13:28:33.137Z,-10.01
2024-01-22T13:31:02.734Z,-10.05
2024-01-22T13:33:31.727Z,-10.01
2024-01-22T13:36:01.492Z,-10.09
2024-01-22T13:38:30.944Z,-10.14
2024-01-22T13:40:59.887Z,-10.20
2024-01-22T13:43:29.409Z,-10.27
2024-01-22T13:45:58.734Z,-10.25
2024-01-22T13:48:30.883Z,-10.36
2024-01-22T13:51:03.511Z,-10.33
2024-01-22T13:53:37.869Z,-10.33
2024-01-22T13:56:11.541Z,-10.45
2024-01-22T13:58:39.931Z,-10.43
2024-01-22T14:01:12.267Z,-10.31
2024-01-22T14:03:40.271Z,-10.25
2024-01-22T14:06:11.795Z,-10.13
2024-01-22T14:08:42.937Z,-10.04
2024-01-22T14:11:12.133Z,-10.02
2024-01-22T14:13:39.698Z,-10.05
2024-01-22T14:16:12.406Z,-10.07
2024-01-22T14:18:41.360Z,-10.05
2024-01-22T14:24:35.917Z,-10.01
2024-01-22T14:40:57.972Z,-10.20
2024-01-22T14:43:25.917Z,-10.02
2024-01-22T14:45:54.671Z,-10.10
2024-01-22T14:48:23.502Z,-10.20
2024-01-22T14:50:53.690Z,-10.03
2024-01-22T14:53:22.136Z,-10.14
2024-01-22T14:55:55.765Z,-10.08
2024-01-22T14:58:23.423Z,-10.14
2024-01-22T15:01:08.979Z,-10.08
2024-01-22T15:03:38.415Z,-10.04
2024-01-22T15:06:06.653Z,-10.07
2024-01-22T15:08:51.086Z,-10.12
2024-01-22T15:27:03.095Z,-10.06
2024-01-22T15:29:31.369Z,-10.16
2024-01-22T15:31:59.094Z,-10.28
2024-01-22T15:34:26.905Z,-10.07
2024-01-22T15:36:54.876Z,-10.31
2024-01-22T15:39:27.175Z,-10.34
2024-01-22T15:41:55.086Z,-10.27
2024-01-22T15:44:22.372Z,-10.33
2024-01-22T15:46:49.711Z,-10.34
2024-01-22T15:49:17.516Z,-10.20
2024-01-22T15:51:44.798Z,-10.21
2024-01-22T15:54:12.217Z,-10.37
2024-01-22T15:56:40.108Z,-10.31
2024-01-22T15:59:14.454Z,-10.55
2024-01-22T16:01:42.092Z,-10.37
2024-01-22T16:04:10.024Z,-10.28
2024-01-22T16:06:41.534Z,-10.51
2024-01-22T16:09:11.402Z,-10.60
2024-01-22T16:11:39.826Z,-10.48
2024-01-22T16:14:07.967Z,-10.59
2024-01-22T16:16:35.324Z,-10.71
2024-01-22T16:19:02.814Z,-10.75
2024-01-22T16:21:31.517Z,-10.73
2024-01-22T16:23:59.371Z,-10.94
2024-01-22T16:26:26.750Z,-10.77
2024-01-22T16:28:54.471Z,-10.77
2024-01-22T16:31:21.774Z,-10.69
2024-01-22T16:33:49.246Z,-10.50
2024-01-22T16:36:16.945Z,-10.56
2024-01-22T16:38:45.289Z,-10.54
2024-01-22T16:41:46.968Z,-10.44
2024-01-22T16:44:14.551Z,-10.63
2024-01-22T16:47:27.123Z,-10.70
2024-01-22T16:49:59.603Z,-10.87
2024-01-22T16:52:27.608Z,-10.83
2024-01-22T16:55:16.066Z,-10.87
2024-01-22T16:57:43.271Z,-10.91
2024-01-22T17:00:11.437Z,-11.05
2024-01-22T17:02:38.700Z,-10.90
2024-01-22T17:05:06.968Z,-10.94
2024-01-22T17:07:34.292Z,-10.83
2024-01-22T17:10:01.536Z,-10.91
2024-01-22T17:12:48.775Z,-10.75
2024-01-22T17:15:41.365Z,-10.76
2024-01-22T17:18:14.845Z,-10.82
2024-01-22T17:20:45.554Z,-10.70
2024-01-22T17:23:14.285Z,-10.77
2024-01-22T17:25:41.775Z,-10.75
2024-01-22T17:28:09.547Z,-10.78
2024-01-22T17:30:36.779Z,-10.63
2024-01-22T17:33:04.765Z,-10.74
2024-01-22T17:35:32.344Z,-10.79
2024-01-22T17:38:00.373Z,-10.82
2024-01-22T17:41:04.131Z,-10.81
2024-01-22T17:43:32.207Z,-10.82
2024-01-22T17:46:05.449Z,-10.85
2024-01-22T17:48:32.950Z,-10.80
2024-01-22T17:51:00.840Z,-10.78
2024-01-22T17:53:29.333Z,-10.84
2024-01-22T17:55:57.110Z,-10.96
2024-01-22T17:58:24.474Z,-11.05
2024-01-22T18:00:51.679Z,-11.01
2024-01-22T18:03:19.007Z,-10.94
2024-01-22T18:05:46.309Z,-10.99
2024-01-22T18:08:14.575Z,-11.02
2024-01-22T18:10:41.902Z,-11.02
2024-01-22T18:13:09.146Z,-10.94
2024-01-22T18:15:36.464Z,-11.03
2024-01-22T18:18:04.512Z,-10.85
2024-01-22T18:20:31.925Z,-10.90
2024-01-22T18:22:59.129Z,-10.85
2024-01-22T18:25:26.313Z,-10.93
2024-01-22T18:27:53.472Z,-11.10
2024-01-22T18:30:21.431Z,-11.06
2024-01-22T18:32:48.780Z,-11.09
2024-01-22T18:35:16.315Z,-11.13
2024-01-22T18:37:43.553Z,-11.04
2024-01-22T18:40:11.282Z,-11.11
2024-01-22T18:43:38.440Z,-11.14
2024-01-22T18:46:13.437Z,-11.20
2024-01-22T18:48:43.834Z,-11.16
2024-01-22T18:51:11.561Z,-11.18
2024-01-22T18:53:39.005Z,-11.05
2024-01-22T18:56:06.955Z,-11.12
2024-01-22T18:58:34.649Z,-11.08
2024-01-22T19:01:02.717Z,-10.97
2024-01-22T19:03:33.491Z,-10.98
2024-01-22T19:06:03.470Z,-11.14
2024-01-22T19:08:31.251Z,-10.92
2024-01-22T19:10:58.994Z,-10.91
2024-01-22T19:13:26.493Z,-10.90
2024-01-22T19:15:56.370Z,-11.03
2024-01-22T19:18:24.073Z,-11.21
2024-01-22T19:20:51.632Z,-11.21
2024-01-22T19:23:19.839Z,-11.11
2024-01-22T19:25:47.511Z,-11.17
2024-01-22T19:28:15.216Z,-11.19
2024-01-22T19:30:42.624Z,-11.15
2024-01-22T19:33:10.429Z,-11.12
2024-01-22T19:35:38.038Z,-11.13
2024-01-22T19:38:05.358Z,-11.20
2024-01-22T19:40:34.560Z,-11.16
2024-01-22T19:43:02.794Z,-11.22
2024-01-22T19:45:30.193Z,-11.20
2024-01-22T19:48:00.422Z,-11.20
2024-01-22T19:50:27.820Z,-11.19
2024-01-22T19:52:55.105Z,-11.18
2024-01-22T19:55:22.399Z,-11.33
2024-01-22T19:57:50.035Z,-11.30
2024-01-22T20:00:17.757Z,-11.23
2024-01-22T20:02:47.423Z,-11.24
2024-01-22T20:05:14.752Z,-11.31
2024-01-22T20:07:42.025Z,-11.35
2024-01-22T20:10:09.630Z,-11.25
2024-01-22T20:12:37.906Z,-11.09
2024-01-22T20:15:05.691Z,-11.08
2024-01-22T20:17:33.180Z,-11.13
2024-01-22T20:20:01.656Z,-10.96
2024-01-22T20:22:28.991Z,-10.88
2024-01-22T20:24:59.502Z,-10.99
2024-01-22T20:27:26.859Z,-10.96
2024-01-22T20:29:54.115Z,-11.01
2024-01-22T20:32:21.331Z,-11.02
2024-01-22T20:34:50.215Z,-10.91
2024-01-22T20:37:18.435Z,-10.96
2024-01-22T20:39:45.743Z,-10.94
2024-01-22T20:42:13.029Z,-10.91
2024-01-22T20:44:40.339Z,-10.95
2024-01-22T20:47:07.599Z,-10.95
2024-01-22T20:49:34.857Z,-10.99
2024-01-22T20:52:02.258Z,-11.08
2024-01-22T20:54:30.576Z,-11.05
2024-01-22T20:56:58.165Z,-10.83
2024-01-22T20:59:25.319Z,-10.80
2024-01-22T21:01:52.599Z,-10.86
2024-01-22T21:04:19.890Z,-10.93
2024-01-22T21:06:49.121Z,-10.90
2024-01-22T21:09:17.303Z,-10.97
2024-01-22T21:11:45.203Z,-11.01
2024-01-22T21:14:14.204Z,-10.92
2024-01-22T21:16:43.571Z,-11.05
2024-01-22T21:19:10.896Z,-11.09
2024-01-22T21:21:43.221Z,-11.10
2024-01-22T21:24:11.986Z,-11.04
2024-01-22T21:26:39.261Z,-11.13
2024-01-22T21:29:07.189Z,-11.25
2024-01-22T21:31:37.077Z,-11.13
2024-01-22T21:34:04.358Z,-11.20
2024-01-22T21:36:31.708Z,-11.18
2024-01-22T21:38:58.821Z,-11.06
2024-01-22T21:41:26.267Z,-11.10
2024-01-22T21:43:53.567Z,-11.14
2024-01-22T21:46:23.158Z,-11.16
2024-01-22T21:48:50.981Z,-11.18
2024-01-22T21:51:18.281Z,-11.30
2024-01-22T21:53:46.425Z,-11.23
2024-01-22T21:56:14.986Z,-11.36
2024-01-22T21:58:42.461Z,-11.29
2024-01-22T22:01:09.874Z,-11.27
2024-01-22T22:03:37.660Z,-11.35
2024-01-22T22:06:06.565Z,-11.29
2024-01-22T22:08:35.625Z,-11.21
2024-01-22T22:11:03.941Z,-11.29
2024-01-22T22:13:31.926Z,-11.29
2024-01-22T22:15:59.184Z,-11.24
2024-01-22T22:18:27.016Z,-11.20
2024-01-22T22:20:54.603Z,-11.15
2024-01-22T22:23:21.974Z,-11.05
2024-01-22T22:25:49.556Z,-11.17
2024-01-22T22:28:16.654Z,-11.19
2024-01-22T22:30:43.802Z,-11.20
2024-01-22T22:33:11.494Z,-11.16
2024-01-22T22:35:39.418Z,-11.15
2024-01-22T22:38:07.661Z,-11.16
2024-01-22T22:40:34.832Z,-11.21
2024-01-22T22:43:01.960Z,-11.21
2024-01-22T22:45:29.151Z,-11.27
2024-01-22T22:47:56.394Z,-11.34
2024-01-22T22:50:23.583Z,-11.25
2024-01-22T22:52:50.661Z,-11.32
2024-01-22T22:55:17.948Z,-11.31
2024-01-22T22:57:45.304Z,-11.20
2024-01-22T23:00:13.942Z,-11.21
2024-01-22T23:02:41.781Z,-11.38
2024-01-22T23:05:09.491Z,-11.40
2024-01-22T23:07:36.687Z,-11.33
2024-01-22T23:10:04.191Z,-11.13
2024-01-22T23:12:31.459Z,-11.08
2024-01-22T23:14:58.723Z,-11.05
2024-01-22T23:17:26.196Z,-11.06
2024-01-22T23:19:53.871Z,-11.07
2024-01-22T23:22:21.341Z,-10.97
2024-01-22T23:24:48.564Z,-10.90
2024-01-22T23:27:15.710Z,-11.02
2024-01-22T23:29:42.939Z,-11.03
2024-01-22T23:32:10.949Z,-11.05
2024-01-22T23:34:38.180Z,-11.10
2024-01-22T23:37:05.588Z,-11.00
2024-01-22T23:39:32.831Z,-11.10
2024-01-22T23:42:00.215Z,-11.03
2024-01-22T23:44:27.567Z,-10.97
2024-01-22T23:46:54.882Z,-11.12
2024-01-22T23:49:22.260Z,-11.08
2024-01-22T23:51:49.594Z,-11.02
2024-01-22T23:54:16.778Z,-10.90
2024-01-22T23:56:43.965Z,-10.99
2024-01-22T23:59:11.091Z,-11.02
